createdAt,value
2022-09-27T00:00:44.897Z,13.24
2022-09-27T00:03:12.979Z,13.24
2022-09-27T00:05:41.442Z,13.23
2022-09-27T00:08:09.195Z,13.17
2022-09-27T00:10:36.936Z,13.19
2022-09-27T00:13:04.751Z,13.27
2022-09-27T00:15:33.898Z,13.37
2022-09-27T00:18:01.617Z,13.46
2022-09-27T00:20:29.374Z,13.46
2022-09-27T00:22:57.068Z,13.47
2022-09-27T00:25:24.794Z,13.50
2022-09-27T00:27:52.455Z,13.57
2022-09-27T00:30:20.106Z,13.56
2022-09-27T00:32:49.132Z,13.56
2022-09-27T00:35:17.077Z,13.64
2022-09-27T00:37:44.788Z,13.69
2022-09-27T00:40:16.191Z,13.63
2022-09-27T00:42:46.483Z,13.57
2022-09-27T00:45:17.784Z,13.57
2022-09-27T00:47:55.437Z,13.54
2022-09-27T00:50:27.864Z,13.53
2022-09-27T00:53:05.054Z,13.52
2022-09-27T00:55:37.683Z,13.46
2022-09-27T00:58:06.482Z,13.47
2022-09-27T01:00:34.653Z,13.46
2022-09-27T01:03:11.426Z,13.39
2022-09-27T01:05:39.254Z,13.34
2022-09-27T01:08:06.946Z,13.29
2022-09-27T01:10:47.956Z,13.39
2022-09-27T01:13:22.116Z,13.48
2022-09-27T01:16:00.585Z,13.59
2022-09-27T01:18:36.634Z,13.69
2022-09-27T01:21:34.123Z,13.69
2022-09-27T01:24:23.887Z,13.70
2022-09-27T01:27:20.047Z,13.74
2022-09-27T01:30:02.988Z,13.77
2022-09-27T01:32:38.994Z,13.78
2022-09-27T01:35:11.825Z,13.83
2022-09-27T01:37:46.472Z,13.92
2022-09-27T01:40:24.592Z,13.85
2022-09-27T01:42:58.307Z,13.82
2022-09-27T01:45:31.815Z,13.85
2022-09-27T01:48:04.339Z,13.78
2022-09-27T01:50:36.680Z,13.81
2022-09-27T01:53:09.162Z,13.88
2022-09-27T01:55:39.787Z,13.90
2022-09-27T01:58:14.898Z,13.89
2022-09-27T02:00:46.433Z,13.91
2022-09-27T02:03:18.787Z,13.90
2022-09-27T02:05:51.111Z,13.92
2022-09-27T02:08:23.526Z,13.90
2022-09-27T02:10:56.246Z,13.90
2022-09-27T02:13:28.709Z,13.86
2022-09-27T02:16:04.479Z,13.85
2022-09-27T02:18:38.482Z,13.87
2022-09-27T02:21:11.197Z,13.86
2022-09-27T02:23:44.497Z,13.84
2022-09-27T02:26:17.521Z,13.83
2022-09-27T02:28:51.149Z,13.85
2022-09-27T02:31:19.174Z,13.84
2022-09-27T02:33:51.630Z,13.87
2022-09-27T02:36:20.061Z,13.88
2022-09-27T02:38:47.758Z,13.96
2022-09-27T02:41:16.525Z,13.92
2022-09-27T02:43:46.237Z,13.90
2022-09-27T02:46:35.003Z,13.82
2022-09-27T02:49:19.825Z,13.78
2022-09-27T02:51:58.200Z,13.78
2022-09-27T02:54:35.342Z,13.81
2022-09-27T02:57:12.403Z,13.81
2022-09-27T02:59:51.190Z,13.84
2022-09-27T03:02:25.048Z,13.84
2022-09-27T03:05:00.443Z,13.84
2022-09-27T03:07:28.532Z,13.88
2022-09-27T03:09:57.335Z,13.90
2022-09-27T03:12:26.904Z,13.82
2022-09-27T03:14:56.175Z,13.77
2022-09-27T03:17:23.930Z,13.76
2022-09-27T03:19:51.816Z,13.77
2022-09-27T03:22:20.885Z,13.78
2022-09-27T03:24:49.218Z,13.77
2022-09-27T03:27:16.966Z,13.78
2022-09-27T03:29:44.752Z,13.73
2022-09-27T03:32:12.502Z,13.71
2022-09-27T03:34:40.207Z,13.67
2022-09-27T03:37:08.388Z,13.65
2022-09-27T03:39:37.447Z,13.61
2022-09-27T03:42:05.418Z,13.58
2022-09-27T03:44:33.366Z,13.59
2022-09-27T03:47:01.116Z,13.57
2022-09-27T03:49:29.130Z,13.56
2022-09-27T03:51:56.866Z,13.59
2022-09-27T03:54:25.071Z,13.63
2022-09-27T03:56:54.197Z,13.66
2022-09-27T03:59:21.919Z,13.66
2022-09-27T04:01:49.670Z,13.67
2022-09-27T04:04:17.431Z,13.67
2022-09-27T04:06:45.190Z,13.69
2022-09-27T04:09:12.877Z,13.64
2022-09-27T04:11:40.625Z,13.62
2022-09-27T04:14:12.993Z,13.60
2022-09-27T04:16:41.306Z,13.68
2022-09-27T04:19:09.690Z,13.72
2022-09-27T04:21:37.596Z,13.69
2022-09-27T04:24:06.631Z,13.63
2022-09-27T04:26:34.380Z,13.66
2022-09-27T04:29:02.282Z,13.71
2022-09-27T04:31:31.396Z,13.61
2022-09-27T04:33:59.711Z,13.61
2022-09-27T04:36:26.727Z,13.64
2022-09-27T04:38:54.871Z,13.63
2022-09-27T04:41:23.412Z,13.62
2022-09-27T04:43:54.203Z,13.60
2022-09-27T04:46:26.111Z,13.57
2022-09-27T04:48:55.194Z,13.56
2022-09-27T04:51:23.101Z,13.59
2022-09-27T04:53:50.753Z,13.60
2022-09-27T04:56:18.432Z,13.63
2022-09-27T04:58:46.134Z,13.73
2022-09-27T05:01:14.062Z,13.71
2022-09-27T05:03:42.031Z,13.68
2022-09-27T05:06:11.113Z,13.61
2022-09-27T05:08:38.859Z,13.53
2022-09-27T05:11:06.705Z,13.49
2022-09-27T05:13:34.404Z,13.51
2022-09-27T05:16:05.015Z,13.52
2022-09-27T05:18:33.435Z,13.58
2022-09-27T05:21:01.067Z,13.61
2022-09-27T05:23:30.120Z,13.53
2022-09-27T05:25:58.050Z,13.54
2022-09-27T05:28:25.787Z,13.60
2022-09-27T05:30:53.493Z,13.67
2022-09-27T05:33:21.317Z,13.62
2022-09-27T05:35:53.604Z,13.62
2022-09-27T05:38:21.507Z,13.59
2022-09-27T05:40:51.484Z,13.62
2022-09-27T05:43:19.984Z,13.61
2022-09-27T05:45:48.225Z,13.64
2022-09-27T05:48:16.008Z,13.72
2022-09-27T05:50:43.715Z,13.74
2022-09-27T05:53:13.182Z,13.73
2022-09-27T05:55:40.868Z,13.72
2022-09-27T05:58:12.479Z,13.76
2022-09-27T06:00:40.309Z,13.76
2022-09-27T06:03:08.224Z,13.69
2022-09-27T06:05:37.646Z,13.63
2022-09-27T06:08:07.514Z,13.56
2022-09-27T06:10:36.260Z,13.58
2022-09-27T06:13:05.725Z,13.63
2022-09-27T06:15:36.070Z,13.68
2022-09-27T06:18:06.245Z,13.70
2022-09-27T06:20:34.180Z,13.77
2022-09-27T06:23:07.512Z,13.78
2022-09-27T06:25:35.528Z,13.73
2022-09-27T06:28:03.262Z,13.78
2022-09-27T06:30:31.468Z,13.75
2022-09-27T06:33:02.003Z,13.75
2022-09-27T06:35:31.119Z,13.81
2022-09-27T06:37:59.205Z,13.85
2022-09-27T06:40:27.319Z,13.88
2022-09-27T06:42:55.302Z,13.98
2022-09-27T06:45:23.824Z,14.03
2022-09-27T06:47:51.634Z,14.06
2022-09-27T06:50:20.687Z,14.06
2022-09-27T06:52:49.721Z,14.04
2022-09-27T06:55:17.827Z,14.00
2022-09-27T06:58:02.878Z,14.01
2022-09-27T07:00:30.866Z,14.05
2022-09-27T07:03:01.030Z,14.04
2022-09-27T07:05:30.486Z,14.09
2022-09-27T07:07:59.269Z,14.15
2022-09-27T07:10:29.491Z,14.23
2022-09-27T07:12:58.537Z,14.31
2022-09-27T07:15:26.259Z,14.43
2022-09-27T07:17:58.113Z,14.46
2022-09-27T07:20:25.900Z,14.49
2022-09-27T07:22:55.009Z,14.56
2022-09-27T07:25:23.042Z,14.60
2022-09-27T07:27:52.544Z,14.63
2022-09-27T07:30:21.041Z,14.65
2022-09-27T07:32:50.431Z,14.66
2022-09-27T07:35:18.145Z,14.63
2022-09-27T07:37:45.922Z,14.62
2022-09-27T07:40:15.149Z,14.56
2022-09-27T07:42:42.914Z,14.51
2022-09-27T07:45:12.054Z,14.51
2022-09-27T07:47:43.010Z,14.47
2022-09-27T07:50:11.351Z,14.45
2022-09-27T07:52:43.100Z,14.49
2022-09-27T07:55:11.937Z,14.43
2022-09-27T07:57:41.300Z,14.49
2022-09-27T08:00:11.319Z,14.64
2022-09-27T08:02:39.074Z,14.74
2022-09-27T08:05:07.754Z,14.88
2022-09-27T08:07:35.758Z,14.99
2022-09-27T08:10:03.492Z,15.18
2022-09-27T08:12:31.250Z,15.34
2022-09-27T08:15:01.483Z,15.47
2022-09-27T08:17:29.956Z,15.56
2022-09-27T08:19:57.776Z,15.65
2022-09-27T08:22:25.703Z,15.70
2022-09-27T08:24:53.427Z,15.74
2022-09-27T08:27:21.132Z,15.78
2022-09-27T08:29:49.617Z,15.83
2022-09-27T08:32:23.088Z,15.87
2022-09-27T08:34:51.649Z,15.97
2022-09-27T08:37:19.377Z,15.99
2022-09-27T08:39:48.210Z,16.10
2022-09-27T08:42:25.864Z,16.55
2022-09-27T08:45:03.441Z,16.73
2022-09-27T08:47:38.201Z,17.07
2022-09-27T08:50:14.809Z,16.84
2022-09-27T08:52:46.532Z,16.58
2022-09-27T08:55:23.474Z,16.44
2022-09-27T08:57:56.248Z,16.41
2022-09-27T09:00:24.518Z,16.18
2022-09-27T09:02:53.616Z,16.08
2022-09-27T09:05:28.965Z,15.94
2022-09-27T09:08:18.432Z,15.84
2022-09-27T09:11:11.845Z,15.88
2022-09-27T09:14:17.429Z,16.87
2022-09-27T09:16:53.508Z,17.33
2022-09-27T09:19:38.190Z,17.23
2022-09-27T09:22:26.019Z,17.01
2022-09-27T09:25:06.338Z,16.78
2022-09-27T09:27:42.787Z,16.69
2022-09-27T09:30:21.731Z,16.59
2022-09-27T09:33:02.134Z,16.65
2022-09-27T09:35:37.648Z,16.79
2022-09-27T09:38:12.450Z,17.01
2022-09-27T09:40:44.343Z,17.09
2022-09-27T09:43:17.714Z,17.03
2022-09-27T09:45:49.691Z,16.95
2022-09-27T09:48:25.438Z,16.70
2022-09-27T09:50:57.520Z,16.42
2022-09-27T09:53:35.989Z,16.19
2022-09-27T09:56:08.201Z,16.02
2022-09-27T09:58:43.984Z,15.86
2022-09-27T10:01:18.628Z,15.73
2022-09-27T10:03:46.977Z,15.65
2022-09-27T10:06:17.657Z,15.66
2022-09-27T10:08:45.413Z,15.63
2022-09-27T10:11:20.995Z,15.61
2022-09-27T10:13:49.136Z,15.61
2022-09-27T10:16:19.612Z,15.62
2022-09-27T10:18:50.129Z,15.52
2022-09-27T10:21:22.750Z,15.49
2022-09-27T10:24:04.990Z,15.40
2022-09-27T10:26:33.270Z,15.34
2022-09-27T10:29:17.509Z,15.30
2022-09-27T10:31:47.996Z,15.24
2022-09-27T10:34:22.172Z,15.21
2022-09-27T10:37:04.883Z,15.25
2022-09-27T10:39:33.073Z,15.33
2022-09-27T10:42:00.778Z,15.38
2022-09-27T10:44:31.903Z,15.44
2022-09-27T10:47:07.616Z,15.44
2022-09-27T10:49:39.293Z,15.50
2022-09-27T10:52:15.720Z,15.53
2022-09-27T10:54:44.081Z,15.55
2022-09-27T10:57:20.789Z,15.55
2022-09-27T10:59:53.988Z,15.56
2022-09-27T11:02:23.882Z,15.52
2022-09-27T11:05:14.681Z,15.51
2022-09-27T11:07:52.701Z,15.45
2022-09-27T11:10:29.175Z,15.48
2022-09-27T11:13:14.938Z,15.39
2022-09-27T11:15:58.898Z,15.39
2022-09-27T11:18:33.727Z,15.42
2022-09-27T11:21:13.156Z,15.48
2022-09-27T11:23:57.710Z,15.54
2022-09-27T11:26:38.604Z,15.61
2022-09-27T11:29:20.958Z,15.55
2022-09-27T11:32:04.782Z,15.50
2022-09-27T11:34:44.373Z,15.42
2022-09-27T11:37:19.400Z,15.36
2022-09-27T11:40:14.036Z,15.24
2022-09-27T11:43:14.010Z,15.15
2022-09-27T11:46:14.320Z,15.10
2022-09-27T11:48:55.682Z,15.07
2022-09-27T11:51:31.811Z,15.20
2022-09-27T11:54:13.642Z,15.34
2022-09-27T11:56:50.774Z,15.60
2022-09-27T11:59:38.494Z,15.69
2022-09-27T12:02:23.158Z,15.80
2022-09-27T12:05:01.762Z,16.01
2022-09-27T12:07:39.053Z,16.29
2022-09-27T12:10:13.765Z,16.65
2022-09-27T12:12:45.600Z,16.86
2022-09-27T12:15:17.864Z,16.97
2022-09-27T12:17:47.690Z,17.22
2022-09-27T12:20:21.557Z,17.20
2022-09-27T12:22:59.697Z,17.28
2022-09-27T12:25:32.889Z,17.25
2022-09-27T12:28:09.623Z,17.12
2022-09-27T12:30:42.403Z,17.03
2022-09-27T12:33:18.826Z,16.92
2022-09-27T12:35:51.418Z,16.84
2022-09-27T12:38:24.191Z,16.73
2022-09-27T12:40:54.945Z,16.63
2022-09-27T12:43:27.837Z,16.48
2022-09-27T12:46:04.138Z,16.43
2022-09-27T12:48:42.398Z,16.34
2022-09-27T12:51:12.944Z,16.22
2022-09-27T12:53:58.960Z,16.10
2022-09-27T12:56:45.078Z,16.01
2022-09-27T12:59:36.815Z,15.88
2022-09-27T13:02:29.356Z,15.78
2022-09-27T13:05:18.857Z,15.76
2022-09-27T13:07:56.941Z,15.73
2022-09-27T13:10:47.496Z,15.70
2022-09-27T13:13:20.151Z,15.61
2022-09-27T13:15:50.609Z,15.54
2022-09-27T13:18:35.152Z,15.56
2022-09-27T13:21:06.498Z,15.52
2022-09-27T13:23:58.969Z,15.52
2022-09-27T13:26:58.173Z,15.49
2022-09-27T13:29:33.877Z,15.55
2022-09-27T13:32:26.196Z,15.67
2022-09-27T13:34:56.498Z,15.69
2022-09-27T13:37:50.799Z,15.80
2022-09-27T13:40:25.719Z,15.84
2022-09-27T13:43:06.480Z,15.87
2022-09-27T13:45:42.833Z,15.83
2022-09-27T13:48:17.853Z,15.84
2022-09-27T13:50:50.752Z,15.80
2022-09-27T13:53:29.358Z,15.69
2022-09-27T13:55:57.374Z,15.64
2022-09-27T13:58:46.802Z,15.67
2022-09-27T14:01:21.242Z,15.64
2022-09-27T14:04:00.667Z,15.66
2022-09-27T14:06:32.124Z,15.62
2022-09-27T14:09:03.828Z,15.62
2022-09-27T14:11:36.188Z,15.61
2022-09-27T14:14:05.761Z,15.54
2022-09-27T14:16:36.860Z,15.49
2022-09-27T14:19:06.358Z,15.53
2022-09-27T14:21:37.058Z,15.51
2022-09-27T14:24:26.800Z,15.50
2022-09-27T14:27:12.654Z,15.53
2022-09-27T14:29:44.859Z,15.53
2022-09-27T14:32:14.506Z,15.49
2022-09-27T14:34:43.689Z,15.57
2022-09-27T14:37:25.971Z,15.59
2022-09-27T14:40:00.170Z,15.67
2022-09-27T14:42:32.451Z,15.70
2022-09-27T14:45:04.564Z,15.76
2022-09-27T14:47:33.719Z,15.80
2022-09-27T14:50:14.596Z,15.89
2022-09-27T14:52:42.525Z,15.96
2022-09-27T14:55:17.215Z,16.02
2022-09-27T14:57:48.005Z,16.06
2022-09-27T15:00:21.715Z,16.02
2022-09-27T15:02:50.778Z,16.01
2022-09-27T15:05:23.122Z,15.97
2022-09-27T15:07:51.559Z,15.93
2022-09-27T15:10:22.034Z,15.88
2022-09-27T15:12:54.487Z,15.82
2022-09-27T15:15:24.956Z,15.79
2022-09-27T15:17:53.501Z,15.75
2022-09-27T15:20:32.143Z,15.65
2022-09-27T15:23:03.342Z,15.55
2022-09-27T15:25:34.495Z,15.44
2022-09-27T15:28:05.316Z,15.38
2022-09-27T15:30:38.150Z,15.31
2022-09-27T15:33:08.022Z,15.24
2022-09-27T15:35:37.662Z,15.13
2022-09-27T15:38:31.035Z,15.03
2022-09-27T15:41:02.095Z,14.95
2022-09-27T15:43:31.894Z,14.93
2022-09-27T15:46:02.999Z,14.87
2022-09-27T15:48:32.634Z,14.86
2022-09-27T15:51:03.085Z,14.88
2022-09-27T15:53:43.678Z,14.89
2022-09-27T15:56:15.056Z,14.92
2022-09-27T15:58:44.811Z,14.90
2022-09-27T16:01:19.523Z,14.90
2022-09-27T16:03:47.142Z,14.80
2022-09-27T16:06:16.228Z,14.82
2022-09-27T16:08:45.208Z,14.84
2022-09-27T16:11:17.129Z,14.80
2022-09-27T16:13:45.439Z,14.79
2022-09-27T16:16:17.154Z,14.76
2022-09-27T16:18:45.334Z,15.02
2022-09-27T16:21:13.608Z,14.90
2022-09-27T16:23:43.879Z,14.90
2022-09-27T16:26:11.552Z,14.82
2022-09-27T16:28:39.412Z,14.82
2022-09-27T16:31:10.098Z,14.77
2022-09-27T16:33:37.843Z,14.75
2022-09-27T16:36:14.393Z,14.67
2022-09-27T16:38:43.969Z,14.63
2022-09-27T16:41:11.663Z,14.67
2022-09-27T16:43:39.302Z,14.64
2022-09-27T16:46:09.462Z,14.62
2022-09-27T16:48:37.220Z,14.51
2022-09-27T16:51:24.615Z,14.51
2022-09-27T16:53:53.635Z,14.47
2022-09-27T16:56:21.327Z,14.44
2022-09-27T16:58:49.034Z,14.45
2022-09-27T17:01:17.370Z,14.44
2022-09-27T17:03:45.768Z,14.46
2022-09-27T17:06:13.371Z,14.40
2022-09-27T17:08:41.041Z,14.40
2022-09-27T17:11:14.607Z,14.37
2022-09-27T17:13:42.705Z,14.32
2022-09-27T17:16:10.909Z,14.17
2022-09-27T17:18:39.107Z,14.09
2022-09-27T17:21:08.888Z,14.03
2022-09-27T17:23:37.127Z,13.97
2022-09-27T17:26:07.118Z,13.98
2022-09-27T17:28:37.417Z,14.04
2022-09-27T17:31:08.677Z,14.00
2022-09-27T17:33:41.708Z,13.98
2022-09-27T17:36:09.495Z,13.96
2022-09-27T17:38:37.478Z,14.01
2022-09-27T17:41:07.045Z,14.02
2022-09-27T17:43:37.648Z,13.98
2022-09-27T17:46:07.873Z,14.00
2022-09-27T17:48:53.969Z,13.84
2022-09-27T17:51:21.838Z,13.78
2022-09-27T17:53:49.876Z,13.72
2022-09-27T17:56:18.438Z,13.61
2022-09-27T17:58:48.937Z,13.57
2022-09-27T18:01:18.406Z,13.56
2022-09-27T18:03:47.014Z,13.43
2022-09-27T18:06:17.213Z,13.32
2022-09-27T18:08:44.934Z,13.28
2022-09-27T18:11:14.447Z,13.37
2022-09-27T18:13:43.868Z,13.45
2022-09-27T18:16:15.287Z,13.56
2022-09-27T18:18:44.468Z,13.60
2022-09-27T18:21:15.400Z,13.62
2022-09-27T18:23:44.373Z,13.63
2022-09-27T18:26:12.640Z,13.59
2022-09-27T18:28:42.302Z,13.59
2022-09-27T18:31:13.603Z,13.59
2022-09-27T18:33:41.696Z,13.48
2022-09-27T18:36:12.991Z,13.48
2022-09-27T18:38:41.253Z,13.44
2022-09-27T18:41:10.054Z,13.42
2022-09-27T18:43:38.938Z,13.40
2022-09-27T18:46:34.113Z,13.35
2022-09-27T18:48:59.195Z,13.38
2022-09-27T18:51:29.008Z,13.40
2022-09-27T18:53:58.111Z,13.44
2022-09-27T18:56:26.499Z,13.37
2022-09-27T18:58:54.531Z,13.24
2022-09-27T19:01:23.168Z,13.21
2022-09-27T19:03:51.445Z,13.23
2022-09-27T19:06:22.163Z,13.29
2022-09-27T19:08:54.677Z,13.34
2022-09-27T19:11:22.657Z,13.37
2022-09-27T19:13:52.542Z,13.23
2022-09-27T19:16:21.687Z,13.28
2022-09-27T19:18:49.860Z,13.27
2022-09-27T19:21:19.671Z,13.21
2022-09-27T19:23:49.925Z,13.08
2022-09-27T19:26:19.555Z,13.00
2022-09-27T19:28:47.868Z,12.93
2022-09-27T19:31:17.756Z,12.77
2022-09-27T19:33:45.875Z,12.67
2022-09-27T19:36:14.906Z,12.55
2022-09-27T19:38:42.604Z,12.48
2022-09-27T19:41:13.317Z,12.41
2022-09-27T19:43:41.310Z,12.31
2022-09-27T19:46:11.388Z,12.32
2022-09-27T19:48:39.226Z,12.29
2022-09-27T19:51:08.062Z,12.29
2022-09-27T19:53:36.130Z,12.27
2022-09-27T19:56:06.078Z,12.27
2022-09-27T19:58:37.000Z,12.35
2022-09-27T20:01:06.921Z,12.34
2022-09-27T20:03:36.129Z,12.29
2022-09-27T20:06:05.253Z,12.32
2022-09-27T20:08:33.086Z,12.24
2022-09-27T20:11:06.189Z,12.23
2022-09-27T20:13:36.566Z,12.28
2022-09-27T20:16:07.825Z,12.38
2022-09-27T20:18:39.257Z,12.36
2022-09-27T20:21:07.482Z,12.37
2022-09-27T20:23:35.987Z,12.39
2022-09-27T20:26:05.672Z,12.34
2022-09-27T20:28:33.254Z,12.36
2022-09-27T20:31:04.339Z,12.34
2022-09-27T20:33:49.739Z,12.40
2022-09-27T20:36:20.234Z,12.43
2022-09-27T20:38:49.443Z,12.39
2022-09-27T20:41:19.604Z,12.36
2022-09-27T20:43:48.229Z,12.42
2022-09-27T20:46:18.974Z,12.37
2022-09-27T20:48:47.710Z,12.43
2022-09-27T20:51:15.586Z,12.48
2022-09-27T20:53:44.600Z,12.40
2022-09-27T20:56:18.348Z,12.36
2022-09-27T20:58:46.415Z,12.28
2022-09-27T21:01:14.921Z,12.22
2022-09-27T21:03:43.960Z,12.22
2022-09-27T21:06:13.132Z,12.21
2022-09-27T21:08:41.355Z,12.22
2022-09-27T21:11:12.834Z,12.19
2022-09-27T21:13:41.829Z,12.20
2022-09-27T21:16:13.805Z,12.12
2022-09-27T21:18:42.148Z,12.09
2022-09-27T21:21:12.472Z,12.07
2022-09-27T21:23:44.573Z,12.10
2022-09-27T21:26:15.062Z,12.07
2022-09-27T21:28:44.004Z,12.07
2022-09-27T21:31:15.696Z,12.04
2022-09-27T21:33:49.051Z,12.00
2022-09-27T21:36:18.177Z,12.07
2022-09-27T21:38:45.820Z,12.09
2022-09-27T21:41:15.924Z,12.12
2022-09-27T21:43:44.973Z,12.10
2022-09-27T21:46:14.417Z,12.12
2022-09-27T21:48:43.460Z,12.15
2022-09-27T21:51:13.195Z,12.14
2022-09-27T21:53:44.332Z,12.20
2022-09-27T21:56:13.043Z,12.22
2022-09-27T21:58:41.779Z,12.22
2022-09-27T22:01:11.143Z,12.20
2022-09-27T22:03:39.654Z,12.15
2022-09-27T22:06:10.643Z,12.13
2022-09-27T22:08:39.121Z,12.15
2022-09-27T22:11:08.649Z,12.14
2022-09-27T22:13:36.913Z,12.10
2022-09-27T22:16:06.053Z,12.16
2022-09-27T22:18:37.260Z,12.13
2022-09-27T22:21:06.724Z,12.14
2022-09-27T22:23:35.106Z,12.15
2022-09-27T22:26:15.979Z,12.12
2022-09-27T22:28:44.487Z,12.10
2022-09-27T22:31:14.964Z,12.12
2022-09-27T22:33:43.226Z,12.14
2022-09-27T22:36:10.876Z,12.16
2022-09-27T22:38:38.454Z,12.21
2022-09-27T22:41:06.151Z,12.25
2022-09-27T22:43:35.258Z,12.22
2022-09-27T22:46:02.879Z,12.21
2022-09-27T22:48:31.456Z,12.24
2022-09-27T22:51:00.719Z,12.28
2022-09-27T22:53:30.107Z,12.29
2022-09-27T22:56:03.750Z,12.20
2022-09-27T22:58:32.599Z,12.17
2022-09-27T23:01:08.686Z,12.29
2022-09-27T23:03:37.006Z,12.21
2022-09-27T23:06:06.969Z,12.26
2022-09-27T23:08:36.161Z,12.30
2022-09-27T23:11:05.435Z,12.29
2022-09-27T23:13:34.488Z,12.30
2022-09-27T23:16:05.849Z,12.29
2022-09-27T23:18:34.087Z,12.34
2022-09-27T23:21:03.625Z,12.33
2022-09-27T23:23:32.356Z,12.20
2022-09-27T23:26:01.623Z,12.18
2022-09-27T23:28:30.352Z,12.14
2022-09-27T23:30:58.019Z,12.13
2022-09-27T23:33:27.936Z,12.20
2022-09-27T23:35:55.551Z,12.22
2022-09-27T23:38:23.423Z,12.13
2022-09-27T23:40:51.070Z,12.13
2022-09-27T23:43:18.666Z,12.07
2022-09-27T23:45:46.315Z,12.12
2022-09-27T23:48:13.985Z,12.06
2022-09-27T23:50:45.011Z,12.02
2022-09-27T23:53:12.641Z,12.01
2022-09-27T23:55:40.238Z,12.03
2022-09-27T23:58:07.941Z,11.97
